createdAt,value
2022-10-06T00:02:24.123Z,100.00
2022-10-06T00:07:28.588Z,100.00
2022-10-06T00:12:40.714Z,100.00
2022-10-06T00:17:45.823Z,100.00
2022-10-06T00:22:51.069Z,100.00
2022-10-06T00:27:57.168Z,100.00
2022-10-06T00:33:04.737Z,100.00
2022-10-06T00:38:09.063Z,100.00
2022-10-06T00:43:49.309Z,100.00
2022-10-06T00:48:59.856Z,100.00
2022-10-06T00:54:05.115Z,100.00
2022-10-06T00:59:13.379Z,100.00
2022-10-06T01:04:19.095Z,100.00
2022-10-06T01:09:24.840Z,100.00
2022-10-06T01:14:31.193Z,100.00
2022-10-06T01:19:47.320Z,100.00
2022-10-06T01:25:30.851Z,100.00
2022-10-06T01:30:42.780Z,100.00
2022-10-06T01:35:50.500Z,100.00
2022-10-06T01:40:56.863Z,100.00
2022-10-06T01:46:01.108Z,100.00
2022-10-06T01:51:05.563Z,100.00
2022-10-06T01:56:11.135Z,100.00
2022-10-06T02:01:15.828Z,100.00
2022-10-06T02:06:20.110Z,100.00
2022-10-06T02:11:25.616Z,100.00
2022-10-06T02:16:31.266Z,100.00
2022-10-06T02:21:35.742Z,100.00
2022-10-06T02:26:41.216Z,100.00
2022-10-06T02:31:46.089Z,100.00
2022-10-06T02:36:50.557Z,100.00
2022-10-06T02:41:56.418Z,100.00
2022-10-06T02:47:00.739Z,100.00
2022-10-06T02:52:04.886Z,100.00
2022-10-06T02:57:10.431Z,100.00
2022-10-06T03:02:14.608Z,100.00
2022-10-06T03:07:19.195Z,100.00
2022-10-06T03:12:25.040Z,100.00
2022-10-06T03:17:29.594Z,100.00
2022-10-06T03:22:34.417Z,100.00
2022-10-06T03:27:39.881Z,100.00
2022-10-06T03:32:43.944Z,100.00
2022-10-06T03:37:48.167Z,100.00
2022-10-06T03:42:53.652Z,100.00
2022-10-06T03:47:57.795Z,100.00
2022-10-06T03:53:02.307Z,100.00
2022-10-06T03:58:09.458Z,100.00
2022-10-06T04:03:13.692Z,100.00
2022-10-06T04:08:18.275Z,100.00
2022-10-06T04:13:24.049Z,100.00
2022-10-06T04:18:28.765Z,100.00
2022-10-06T04:23:34.071Z,100.00
2022-10-06T04:28:40.627Z,100.00
2022-10-06T04:33:46.862Z,100.00
2022-10-06T04:38:56.296Z,100.00
2022-10-06T04:44:05.400Z,100.00
2022-10-06T04:49:14.646Z,100.00
2022-10-06T04:54:24.929Z,100.00
2022-10-06T04:59:52.739Z,100.00
2022-10-06T05:04:58.284Z,100.00
2022-10-06T05:10:05.325Z,100.00
2022-10-06T05:15:12.112Z,100.00
2022-10-06T05:20:17.994Z,100.00
2022-10-06T05:25:23.098Z,100.00
2022-10-06T05:30:28.695Z,100.00
2022-10-06T05:35:37.852Z,100.00
2022-10-06T05:40:46.041Z,100.00
2022-10-06T05:45:59.023Z,100.00
2022-10-06T05:51:06.871Z,100.00
2022-10-06T05:56:15.459Z,100.00
2022-10-06T06:01:25.701Z,100.00
2022-10-06T06:06:32.916Z,100.00
2022-10-06T06:11:42.638Z,100.00
2022-10-06T06:16:48.989Z,100.00
2022-10-06T06:21:53.560Z,100.00
2022-10-06T06:27:00.851Z,100.00
2022-10-06T06:32:07.146Z,100.00
2022-10-06T06:37:15.254Z,100.00
2022-10-06T06:42:23.532Z,100.00
2022-10-06T06:47:41.218Z,100.00
2022-10-06T06:52:48.535Z,100.00
2022-10-06T06:57:54.931Z,100.00
2022-10-06T07:03:01.486Z,100.00
2022-10-06T07:08:09.903Z,100.00
2022-10-06T07:13:17.543Z,100.00
2022-10-06T07:18:41.732Z,100.00
2022-10-06T07:24:05.006Z,100.00
2022-10-06T07:29:09.534Z,100.00
2022-10-06T07:34:15.690Z,85.12
2022-10-06T07:39:22.793Z,82.84
2022-10-06T07:44:27.077Z,80.05
2022-10-06T07:49:32.706Z,68.01
2022-10-06T07:54:39.693Z,67.66
2022-10-06T08:00:07.470Z,65.53
2022-10-06T08:05:17.652Z,64.93
2022-10-06T08:10:21.950Z,69.38
2022-10-06T08:15:26.088Z,67.58
2022-10-06T08:20:31.684Z,64.10
2022-10-06T08:25:38.835Z,61.10
2022-10-06T08:30:43.309Z,60.01
2022-10-06T08:35:48.652Z,54.89
2022-10-06T08:40:54.118Z,54.48
2022-10-06T08:46:03.197Z,55.90
2022-10-06T08:51:24.188Z,54.71
2022-10-06T08:56:42.019Z,56.19
2022-10-06T09:02:02.133Z,55.29
2022-10-06T09:07:15.548Z,55.05
2022-10-06T09:12:45.312Z,51.91
2022-10-06T09:18:00.339Z,58.57
2022-10-06T09:23:13.219Z,51.20
2022-10-06T09:28:20.041Z,49.23
2022-10-06T09:33:27.951Z,50.25
2022-10-06T09:38:48.492Z,46.71
2022-10-06T09:43:59.029Z,50.29
2022-10-06T09:49:14.300Z,50.58
2022-10-06T09:54:19.648Z,48.80
2022-10-06T09:59:29.722Z,50.44
2022-10-06T10:04:38.253Z,49.82
2022-10-06T10:09:44.247Z,44.89
2022-10-06T10:14:48.843Z,43.35
2022-10-06T10:19:54.695Z,45.80
2022-10-06T10:25:09.512Z,44.15
2022-10-06T10:30:15.356Z,46.23
2022-10-06T10:35:27.314Z,44.71
2022-10-06T10:40:38.936Z,46.13
2022-10-06T10:45:48.251Z,44.61
2022-10-06T10:50:59.068Z,42.99
2022-10-06T10:56:08.734Z,40.71
2022-10-06T11:01:29.537Z,40.75
2022-10-06T11:07:09.330Z,43.17
2022-10-06T11:12:29.532Z,41.28
2022-10-06T11:17:44.519Z,41.76
2022-10-06T11:22:56.559Z,40.32
2022-10-06T11:28:13.412Z,42.38
2022-10-06T11:33:18.892Z,39.34
2022-10-06T11:38:33.436Z,41.00
2022-10-06T11:43:44.264Z,43.72
2022-10-06T11:48:48.333Z,39.24
2022-10-06T11:53:52.898Z,40.27
2022-10-06T11:59:11.385Z,38.42
2022-10-06T12:04:21.943Z,40.87
2022-10-06T12:09:53.278Z,39.31
2022-10-06T12:16:58.191Z,38.10
2022-10-06T12:20:47.047Z,43.72
2022-10-06T12:25:56.871Z,43.16
2022-10-06T12:31:21.733Z,39.62
2022-10-06T12:36:28.849Z,36.89
2022-10-06T12:41:58.502Z,39.20
2022-10-06T12:47:07.762Z,35.60
2022-10-06T12:52:32.582Z,37.90
2022-10-06T12:57:47.087Z,36.46
2022-10-06T13:02:57.737Z,37.37
2022-10-06T13:08:03.578Z,38.28
2022-10-06T13:13:23.839Z,34.88
2022-10-06T13:18:30.339Z,34.46
2022-10-06T13:23:35.817Z,37.54
2022-10-06T13:28:57.780Z,39.05
2022-10-06T13:34:08.010Z,35.86
2022-10-06T13:39:17.824Z,37.46
2022-10-06T13:44:34.813Z,38.38
2022-10-06T13:49:44.401Z,40.97
2022-10-06T13:54:53.705Z,38.99
2022-10-06T14:00:04.150Z,41.77
2022-10-06T14:05:30.120Z,40.31
2022-10-06T14:10:48.172Z,40.73
2022-10-06T14:15:54.206Z,43.30
2022-10-06T14:20:59.710Z,44.56
2022-10-06T14:26:03.665Z,43.37
2022-10-06T14:31:13.464Z,48.13
2022-10-06T14:36:23.506Z,49.36
2022-10-06T14:41:30.151Z,49.31
2022-10-06T14:46:35.015Z,50.75
2022-10-06T14:51:42.305Z,52.88
2022-10-06T14:56:48.017Z,50.61
2022-10-06T15:01:52.773Z,52.74
2022-10-06T15:07:15.485Z,53.67
2022-10-06T15:12:19.469Z,52.70
2022-10-06T15:17:26.611Z,56.35
2022-10-06T15:22:32.173Z,52.49
2022-10-06T15:27:53.725Z,52.38
2022-10-06T15:32:59.435Z,53.69
2022-10-06T15:38:04.810Z,53.13
2022-10-06T15:43:08.810Z,52.51
2022-10-06T15:48:12.854Z,53.69
2022-10-06T15:53:18.387Z,53.51
2022-10-06T15:58:45.494Z,53.11
2022-10-06T16:03:53.500Z,52.82
2022-10-06T16:09:05.451Z,53.21
2022-10-06T16:14:11.724Z,54.54
2022-10-06T16:19:17.596Z,54.88
2022-10-06T16:24:24.816Z,56.40
2022-10-06T16:29:29.910Z,52.42
2022-10-06T16:34:34.606Z,52.95
2022-10-06T16:39:40.651Z,53.52
2022-10-06T16:44:46.900Z,54.82
2022-10-06T16:49:51.411Z,60.83
2022-10-06T16:54:57.650Z,57.60
2022-10-06T17:00:05.745Z,64.11
2022-10-06T17:05:10.526Z,81.39
2022-10-06T17:10:20.706Z,84.34
2022-10-06T17:15:29.055Z,84.05
2022-10-06T17:20:39.921Z,87.45
2022-10-06T17:26:32.046Z,91.53
2022-10-06T17:31:40.398Z,89.83
2022-10-06T17:36:56.791Z,91.32
2022-10-06T17:42:13.301Z,97.57
2022-10-06T17:47:26.357Z,87.47
2022-10-06T17:52:49.949Z,95.11
2022-10-06T17:58:21.869Z,100.00
2022-10-06T18:03:27.552Z,100.00
2022-10-06T18:08:32.616Z,94.78
2022-10-06T18:13:37.952Z,96.71
2022-10-06T18:18:45.974Z,97.50
2022-10-06T18:23:51.174Z,84.41
2022-10-06T18:28:58.734Z,90.13
2022-10-06T18:39:31.496Z,82.77
2022-10-06T18:44:55.685Z,80.94
2022-10-06T18:50:53.521Z,85.97
2022-10-06T18:56:30.080Z,94.75
2022-10-06T19:01:43.543Z,89.71
2022-10-06T19:06:50.983Z,88.44
2022-10-06T19:11:57.894Z,81.40
2022-10-06T19:17:05.929Z,81.86
2022-10-06T19:22:13.879Z,84.46
2022-10-06T19:27:20.709Z,90.67
2022-10-06T19:32:35.025Z,98.17
2022-10-06T19:37:39.980Z,86.28
2022-10-06T19:43:00.151Z,71.87
2022-10-06T19:48:31.825Z,74.76
2022-10-06T19:53:44.041Z,81.74
2022-10-06T19:58:52.018Z,89.93
2022-10-06T20:03:58.043Z,84.89
2022-10-06T20:09:09.340Z,77.27
2022-10-06T20:14:39.171Z,83.78
2022-10-06T20:19:46.635Z,84.83
2022-10-06T20:24:51.870Z,99.46
2022-10-06T20:29:58.069Z,100.00
2022-10-06T20:35:30.207Z,100.00
2022-10-06T20:41:32.212Z,100.00
2022-10-06T20:46:43.744Z,100.00
2022-10-06T20:52:20.223Z,100.00
2022-10-06T20:57:33.523Z,100.00
2022-10-06T21:02:38.009Z,100.00
2022-10-06T21:07:53.165Z,100.00
2022-10-06T21:12:59.420Z,100.00
2022-10-06T21:18:29.793Z,100.00
2022-10-06T21:23:45.052Z,100.00
2022-10-06T21:29:03.879Z,100.00
2022-10-06T21:34:10.560Z,100.00
2022-10-06T21:39:16.508Z,100.00
2022-10-06T21:44:20.908Z,100.00
2022-10-06T21:49:28.302Z,100.00
2022-10-06T21:54:33.819Z,100.00
2022-10-06T21:59:37.760Z,100.00
2022-10-06T22:04:42.577Z,100.00
2022-10-06T22:09:47.927Z,100.00
2022-10-06T22:14:52.491Z,100.00
2022-10-06T22:19:58.925Z,100.00
2022-10-06T22:25:05.248Z,100.00
2022-10-06T22:30:10.256Z,100.00
2022-10-06T22:35:14.271Z,100.00
2022-10-06T22:40:19.612Z,100.00
2022-10-06T22:45:23.689Z,100.00
2022-10-06T22:50:27.621Z,100.00
2022-10-06T22:55:33.616Z,100.00
2022-10-06T23:00:38.205Z,100.00
2022-10-06T23:05:42.413Z,100.00
2022-10-06T23:10:47.737Z,100.00
2022-10-06T23:16:06.486Z,100.00
2022-10-06T23:21:14.008Z,100.00
2022-10-06T23:26:20.473Z,100.00
2022-10-06T23:31:25.362Z,100.00
2022-10-06T23:36:29.304Z,100.00
2022-10-06T23:41:34.600Z,100.00
2022-10-06T23:46:38.551Z,100.00
2022-10-06T23:51:42.456Z,100.00
2022-10-06T23:56:49.478Z,100.00
